createdAt,value
2017-09-04T00:00:51.022Z,5.87
2017-09-04T00:03:19.969Z,5.40
2017-09-04T00:05:48.836Z,7.07
2017-09-04T00:08:17.703Z,5.57
2017-09-04T00:10:46.563Z,5.50
2017-09-04T00:13:15.435Z,4.80
2017-09-04T00:15:44.283Z,4.53
2017-09-04T00:18:13.170Z,4.20
2017-09-04T00:20:43.111Z,3.93
2017-09-04T00:23:11.982Z,4.20
2017-09-04T00:25:40.845Z,4.40
2017-09-04T00:28:09.721Z,4.10
2017-09-04T00:30:38.587Z,4.73
2017-09-04T00:33:07.465Z,5.67
2017-09-04T00:35:36.331Z,6.00
2017-09-04T00:38:05.309Z,6.40
2017-09-04T00:40:35.058Z,5.73
2017-09-04T00:43:03.944Z,4.67
2017-09-04T00:45:32.818Z,4.60
2017-09-04T00:48:01.705Z,4.40
2017-09-04T00:50:30.569Z,4.70
2017-09-04T00:52:59.444Z,4.20
2017-09-04T00:55:28.291Z,4.73
2017-09-04T00:57:57.168Z,4.53
2017-09-04T01:00:26.504Z,4.67
2017-09-04T01:02:55.383Z,5.03
2017-09-04T01:05:24.250Z,5.47
2017-09-04T01:07:53.132Z,5.30
2017-09-04T01:10:22.023Z,6.90
2017-09-04T01:12:50.909Z,5.57
2017-09-04T01:15:19.895Z,5.20
2017-09-04T01:17:49.206Z,4.30
2017-09-04T01:20:18.077Z,4.40
2017-09-04T01:22:46.956Z,4.63
2017-09-04T01:25:15.826Z,4.43
2017-09-04T01:27:44.713Z,4.97
2017-09-04T01:30:13.576Z,5.10
2017-09-04T01:32:42.451Z,4.63
2017-09-04T01:35:11.307Z,4.70
2017-09-04T01:37:41.966Z,4.87
2017-09-04T01:40:10.854Z,4.90
2017-09-04T01:42:40.668Z,6.07
2017-09-04T01:45:09.537Z,4.90
2017-09-04T01:47:38.401Z,4.83
2017-09-04T01:50:07.285Z,5.17
2017-09-04T01:52:36.135Z,5.70
2017-09-04T01:55:05.021Z,5.30
2017-09-04T01:57:33.881Z,5.43
2017-09-04T02:00:02.800Z,5.40
2017-09-04T02:02:32.775Z,5.50
2017-09-04T02:05:01.639Z,5.53
2017-09-04T02:07:30.518Z,5.57
2017-09-04T02:09:59.382Z,4.93
2017-09-04T02:12:28.278Z,4.70
2017-09-04T02:14:57.144Z,5.60
2017-09-04T02:17:26.051Z,5.00
2017-09-04T02:19:54.932Z,5.87
2017-09-04T02:22:23.780Z,5.47
2017-09-04T02:24:52.955Z,5.53
2017-09-04T02:27:21.804Z,5.40
2017-09-04T02:29:50.848Z,5.10
2017-09-04T02:32:19.709Z,5.87
2017-09-04T02:34:48.633Z,5.87
2017-09-04T02:37:17.491Z,5.07
2017-09-04T02:39:46.364Z,4.90
2017-09-04T02:42:15.211Z,6.10
2017-09-04T02:44:44.357Z,5.60
2017-09-04T02:47:13.203Z,6.03
2017-09-04T02:49:42.072Z,6.03
2017-09-04T02:52:10.962Z,5.03
2017-09-04T02:54:39.883Z,5.83
2017-09-04T02:57:08.746Z,5.63
2017-09-04T02:59:37.620Z,5.57
2017-09-04T03:02:06.475Z,6.03
2017-09-04T03:04:35.347Z,5.40
2017-09-04T03:07:04.216Z,5.73
2017-09-04T03:09:33.091Z,5.40
2017-09-04T03:12:02.472Z,5.43
2017-09-04T03:14:31.356Z,6.17
2017-09-04T03:17:00.221Z,5.13
2017-09-04T03:19:29.092Z,6.60
2017-09-04T03:21:57.948Z,6.63
2017-09-04T03:24:26.827Z,6.57
2017-09-04T03:26:56.567Z,6.13
2017-09-04T03:29:25.460Z,5.80
2017-09-04T03:31:54.325Z,5.63
2017-09-04T03:34:23.199Z,6.07
2017-09-04T03:36:52.053Z,6.40
2017-09-04T03:39:21.779Z,6.53
2017-09-04T03:41:50.628Z,6.63
2017-09-04T03:44:19.510Z,5.97
2017-09-04T03:46:48.371Z,6.10
2017-09-04T03:49:17.251Z,6.07
2017-09-04T03:51:46.130Z,6.33
2017-09-04T03:54:14.997Z,6.50
2017-09-04T03:56:43.878Z,6.37
2017-09-04T03:59:12.731Z,6.13
2017-09-04T04:01:41.595Z,6.30
2017-09-04T04:04:10.465Z,5.90
2017-09-04T04:06:39.382Z,6.40
2017-09-04T04:09:08.843Z,5.90
2017-09-04T04:11:37.711Z,6.60
2017-09-04T04:14:07.047Z,6.40
2017-09-04T04:16:35.940Z,6.90
2017-09-04T04:19:04.804Z,6.07
2017-09-04T04:21:33.680Z,5.83
2017-09-04T04:24:02.539Z,6.80
2017-09-04T04:26:32.233Z,5.90
2017-09-04T04:29:01.758Z,6.10
2017-09-04T04:31:30.648Z,8.97
2017-09-04T04:33:59.500Z,8.30
2017-09-04T04:36:29.924Z,8.00
2017-09-04T04:38:58.868Z,8.33
2017-09-04T04:41:27.921Z,7.60
2017-09-04T04:43:56.802Z,10.00
2017-09-04T04:46:25.951Z,7.70
2017-09-04T04:48:56.098Z,7.83
2017-09-04T04:51:24.980Z,7.20
2017-09-04T04:53:53.837Z,7.70
2017-09-04T04:56:22.718Z,7.10
2017-09-04T04:58:51.567Z,8.73
2017-09-04T05:01:20.445Z,7.13
2017-09-04T05:03:49.300Z,5.97
2017-09-04T05:06:18.177Z,7.60
2017-09-04T05:08:47.027Z,6.90
2017-09-04T05:11:15.891Z,5.80
2017-09-04T05:13:44.750Z,6.33
2017-09-04T05:16:13.625Z,6.00
2017-09-04T05:18:42.487Z,7.00
2017-09-04T05:21:11.356Z,6.80
2017-09-04T05:23:40.268Z,7.17
2017-09-04T05:26:09.742Z,5.67
2017-09-04T05:28:39.466Z,6.00
2017-09-04T05:31:08.326Z,5.83
2017-09-04T05:33:37.220Z,6.10
2017-09-04T05:36:06.095Z,5.63
2017-09-04T05:38:34.957Z,5.40
2017-09-04T05:41:03.823Z,5.77
2017-09-04T05:43:32.694Z,6.00
2017-09-04T05:46:01.572Z,5.73
2017-09-04T05:48:30.462Z,5.17
2017-09-04T05:50:59.355Z,5.83
2017-09-04T05:53:28.216Z,6.00
2017-09-04T05:55:57.108Z,5.93
2017-09-04T05:58:25.969Z,6.50
2017-09-04T06:00:54.847Z,5.60
2017-09-04T06:03:23.704Z,5.50
2017-09-04T06:05:52.569Z,5.30
2017-09-04T06:08:21.428Z,4.70
2017-09-04T06:10:50.295Z,5.07
2017-09-04T06:13:19.146Z,5.20
2017-09-04T06:15:47.991Z,5.70
2017-09-04T06:18:16.865Z,4.40
2017-09-04T06:20:45.717Z,4.53
2017-09-04T06:23:14.585Z,4.43
2017-09-04T06:25:42.092Z,4.30
2017-09-04T06:28:09.612Z,4.60
2017-09-04T06:30:37.137Z,4.47
2017-09-04T06:33:04.673Z,4.23
2017-09-04T06:35:32.184Z,5.03
2017-09-04T06:37:59.708Z,4.27
2017-09-04T06:40:27.221Z,4.30
2017-09-04T06:42:54.754Z,4.03
2017-09-04T06:45:22.265Z,3.80
2017-09-04T06:47:50.556Z,4.53
2017-09-04T06:50:18.827Z,4.03
2017-09-04T06:52:46.361Z,3.60
2017-09-04T06:55:13.882Z,3.67
2017-09-04T06:57:41.409Z,3.13
2017-09-04T07:00:09.016Z,3.87
2017-09-04T07:02:36.540Z,3.17
2017-09-04T07:05:04.044Z,3.80
2017-09-04T07:07:31.576Z,3.60
2017-09-04T07:09:59.084Z,3.40
2017-09-04T07:12:26.622Z,3.20
2017-09-04T07:14:54.127Z,3.83
2017-09-04T07:17:22.999Z,4.10
2017-09-04T07:19:51.663Z,3.40
2017-09-04T07:22:20.555Z,3.23
2017-09-04T07:24:49.407Z,3.20
2017-09-04T07:27:18.279Z,2.50
2017-09-04T07:29:47.146Z,3.20
2017-09-04T07:32:16.013Z,2.80
2017-09-04T07:34:44.871Z,2.83
2017-09-04T07:37:13.736Z,3.03
2017-09-04T07:39:41.257Z,2.90
2017-09-04T07:42:08.787Z,2.03
2017-09-04T07:44:36.304Z,3.45
2017-09-04T07:47:03.849Z,3.40
2017-09-04T07:49:31.366Z,3.47
2017-09-04T07:51:58.920Z,2.80
2017-09-04T07:54:26.442Z,3.03
2017-09-04T07:56:53.965Z,2.17
2017-09-04T07:59:21.492Z,2.92
2017-09-04T08:01:49.003Z,2.87
2017-09-04T08:04:16.534Z,2.78
2017-09-04T08:06:44.049Z,2.20
2017-09-04T08:09:11.588Z,2.28
2017-09-04T08:11:39.108Z,2.60
2017-09-04T08:14:06.631Z,2.83
2017-09-04T08:16:34.149Z,2.58
2017-09-04T08:19:01.672Z,1.83
2017-09-04T08:21:29.199Z,2.58
2017-09-04T08:23:56.720Z,2.00
2017-09-04T08:26:26.679Z,2.10
2017-09-04T08:28:55.561Z,2.15
2017-09-04T08:31:23.071Z,1.67
2017-09-04T08:33:51.958Z,2.00
2017-09-04T08:36:20.621Z,2.80
2017-09-04T08:38:48.156Z,1.83
2017-09-04T08:41:15.680Z,2.22
2017-09-04T08:43:43.200Z,2.25
2017-09-04T08:46:10.722Z,2.12
2017-09-04T08:48:38.248Z,2.47
2017-09-04T08:51:05.776Z,2.53
2017-09-04T08:53:33.319Z,1.95
2017-09-04T08:56:01.982Z,1.98
2017-09-04T08:58:29.822Z,2.70
2017-09-04T09:00:58.701Z,1.77
2017-09-04T09:03:27.580Z,1.62
2017-09-04T09:05:56.587Z,2.08
2017-09-04T09:08:25.473Z,2.50
2017-09-04T09:10:54.331Z,1.65
2017-09-04T09:13:23.002Z,2.25
2017-09-04T09:15:50.560Z,2.22
2017-09-04T09:18:18.097Z,2.50
2017-09-04T09:20:45.621Z,1.70
2017-09-04T09:23:13.163Z,2.00
2017-09-04T09:25:40.689Z,1.90
2017-09-04T09:28:08.328Z,2.20
2017-09-04T09:30:35.864Z,2.42
2017-09-04T09:33:03.422Z,2.00
2017-09-04T09:35:32.279Z,2.40
2017-09-04T09:38:01.140Z,1.55
2017-09-04T09:40:30.024Z,2.67
2017-09-04T09:42:58.893Z,2.08
2017-09-04T09:45:27.760Z,1.67
2017-09-04T09:47:56.632Z,1.48
2017-09-04T09:50:25.523Z,1.80
2017-09-04T09:52:54.406Z,2.00
2017-09-04T09:55:23.290Z,1.95
2017-09-04T09:57:52.166Z,2.22
2017-09-04T10:00:21.054Z,1.60
2017-09-04T10:02:49.918Z,1.70
2017-09-04T10:05:17.460Z,3.42
2017-09-04T10:07:44.981Z,1.73
2017-09-04T10:10:12.524Z,1.90
2017-09-04T10:12:40.041Z,1.60
2017-09-04T10:15:07.581Z,1.75
2017-09-04T10:17:35.148Z,1.62
2017-09-04T10:20:02.696Z,1.70
2017-09-04T10:22:30.206Z,1.30
2017-09-04T10:24:57.751Z,1.90
2017-09-04T10:27:25.255Z,1.85
2017-09-04T10:29:52.788Z,1.45
2017-09-04T10:32:20.310Z,1.98
2017-09-04T10:34:47.850Z,1.40
2017-09-04T10:37:15.370Z,1.30
2017-09-04T10:39:44.047Z,1.40
2017-09-04T10:42:11.573Z,1.65
2017-09-04T10:44:39.119Z,1.62
2017-09-04T10:47:06.651Z,1.60
2017-09-04T10:49:34.202Z,1.48
2017-09-04T10:52:01.721Z,2.00
2017-09-04T10:54:29.286Z,1.80
2017-09-04T10:56:56.813Z,1.30
2017-09-04T10:59:24.340Z,1.70
2017-09-04T11:01:51.859Z,1.60
2017-09-04T11:04:19.409Z,1.60
2017-09-04T11:06:46.951Z,1.95
2017-09-04T11:09:14.485Z,1.48
2017-09-04T11:11:42.000Z,1.52
2017-09-04T11:14:09.547Z,2.00
2017-09-04T11:16:37.101Z,1.80
2017-09-04T11:19:04.622Z,1.30
2017-09-04T11:21:32.152Z,1.90
2017-09-04T11:23:59.666Z,1.62
2017-09-04T11:26:27.239Z,1.60
2017-09-04T11:28:54.779Z,2.72
2017-09-04T11:31:22.319Z,2.30
2017-09-04T11:33:49.842Z,1.62
2017-09-04T11:36:17.397Z,2.05
2017-09-04T11:38:44.916Z,2.00
2017-09-04T11:41:12.463Z,2.08
2017-09-04T11:43:39.976Z,1.80
2017-09-04T11:46:07.576Z,1.90
2017-09-04T11:48:35.218Z,1.77
2017-09-04T11:51:02.749Z,2.33
2017-09-04T11:53:30.341Z,2.15
2017-09-04T11:56:00.518Z,2.30
2017-09-04T11:58:28.039Z,2.50
2017-09-04T12:00:55.573Z,1.85
2017-09-04T12:03:23.861Z,1.55
2017-09-04T12:05:51.390Z,1.62
2017-09-04T12:08:18.903Z,1.85
2017-09-04T12:10:46.446Z,1.65
2017-09-04T12:13:13.972Z,1.55
2017-09-04T12:15:41.492Z,2.37
2017-09-04T12:18:09.018Z,2.12
2017-09-04T12:20:37.308Z,1.65
2017-09-04T12:23:04.825Z,1.73
2017-09-04T12:25:33.705Z,2.00
2017-09-04T12:28:02.569Z,2.08
2017-09-04T12:30:31.445Z,1.92
2017-09-04T12:33:00.313Z,1.52
2017-09-04T12:35:29.211Z,1.80
2017-09-04T12:37:58.077Z,1.65
2017-09-04T12:40:26.957Z,1.58
2017-09-04T12:42:55.835Z,1.37
2017-09-04T12:45:23.377Z,2.10
2017-09-04T12:47:52.262Z,2.03
2017-09-04T12:50:21.136Z,2.03
2017-09-04T12:52:49.988Z,1.60
2017-09-04T12:55:18.861Z,1.57
2017-09-04T12:57:47.741Z,1.27
2017-09-04T13:00:15.243Z,1.97
2017-09-04T13:02:43.550Z,1.80
2017-09-04T13:05:11.077Z,1.55
2017-09-04T13:07:40.715Z,2.25
2017-09-04T13:10:09.225Z,1.62
2017-09-04T13:12:36.763Z,1.58
2017-09-04T13:15:14.954Z,1.70
2017-09-04T13:17:49.000Z,2.20
2017-09-04T13:23:21.209Z,1.60
2017-09-04T13:25:59.684Z,1.20
2017-09-04T13:28:34.301Z,1.50
2017-09-04T13:31:09.080Z,1.73
2017-09-04T13:33:55.769Z,1.95
2017-09-04T13:36:30.453Z,2.10
2017-09-04T13:39:04.804Z,1.83
2017-09-04T13:41:39.043Z,1.45
2017-09-04T13:44:26.441Z,1.17
2017-09-04T13:47:00.655Z,2.53
2017-09-04T13:49:34.505Z,1.70
2017-09-04T13:52:20.830Z,1.40
2017-09-04T13:54:54.796Z,1.95
2017-09-04T13:57:24.926Z,1.90
2017-09-04T14:00:12.341Z,1.48
2017-09-04T14:02:45.538Z,1.37
2017-09-04T14:05:23.084Z,1.10
2017-09-04T14:07:57.811Z,1.33
2017-09-04T14:10:31.396Z,1.27
2017-09-04T14:13:06.040Z,2.08
2017-09-04T14:15:40.778Z,1.20
2017-09-04T14:18:10.417Z,1.52
2017-09-04T14:20:39.282Z,1.45
2017-09-04T14:23:08.156Z,1.52
2017-09-04T14:25:37.017Z,1.92
2017-09-04T14:28:05.893Z,2.58
2017-09-04T14:30:34.755Z,1.67
2017-09-04T14:33:03.642Z,2.40
2017-09-04T14:35:32.509Z,2.08
2017-09-04T14:38:01.383Z,2.00
2017-09-04T14:40:30.761Z,1.23
2017-09-04T14:43:09.550Z,1.48
2017-09-04T14:45:41.064Z,1.30
2017-09-04T14:48:09.937Z,1.75
2017-09-04T14:50:38.787Z,1.45
2017-09-04T14:53:07.676Z,1.62
2017-09-04T14:55:36.533Z,1.90
2017-09-04T14:58:05.426Z,2.08
2017-09-04T15:00:34.286Z,2.22
2017-09-04T15:03:03.174Z,2.15
2017-09-04T15:05:32.049Z,2.85
2017-09-04T15:08:00.950Z,1.60
2017-09-04T15:10:29.804Z,3.27
2017-09-04T15:12:58.679Z,2.10
2017-09-04T15:15:27.541Z,1.80
2017-09-04T15:17:56.415Z,1.90
2017-09-04T15:20:25.292Z,1.80
2017-09-04T15:22:54.167Z,2.10
2017-09-04T15:25:23.029Z,2.20
2017-09-04T15:27:51.915Z,1.93
2017-09-04T15:30:20.787Z,2.43
2017-09-04T15:32:49.666Z,2.27
2017-09-04T15:35:18.538Z,1.93
2017-09-04T15:37:47.415Z,2.23
2017-09-04T15:40:16.277Z,2.80
2017-09-04T15:42:45.164Z,2.33
2017-09-04T15:45:14.017Z,2.40
2017-09-04T15:47:42.892Z,2.07
2017-09-04T15:50:11.753Z,1.60
2017-09-04T15:52:40.615Z,1.83
2017-09-04T15:55:09.977Z,2.10
2017-09-04T15:57:38.851Z,2.30
2017-09-04T16:00:07.710Z,2.07
2017-09-04T16:02:36.585Z,2.20
2017-09-04T16:05:05.455Z,2.37
2017-09-04T16:07:36.003Z,2.23
2017-09-04T16:10:04.866Z,2.50
2017-09-04T16:12:37.417Z,2.50
2017-09-04T16:15:08.057Z,2.40
2017-09-04T16:17:47.719Z,2.13
2017-09-04T16:20:17.472Z,2.00
2017-09-04T16:22:57.165Z,2.00
2017-09-04T16:25:26.664Z,2.30
2017-09-04T16:28:07.207Z,2.00
2017-09-04T16:30:54.925Z,2.07
2017-09-04T16:33:23.809Z,2.37
2017-09-04T16:36:08.371Z,2.20
2017-09-04T16:38:41.924Z,2.20
2017-09-04T16:41:22.584Z,4.60
2017-09-04T16:43:52.123Z,1.90
2017-09-04T16:46:27.661Z,2.30
2017-09-04T16:48:58.299Z,2.20
2017-09-04T16:51:28.108Z,2.07
2017-09-04T16:54:00.657Z,2.57
2017-09-04T16:56:29.517Z,1.90
2017-09-04T16:58:58.479Z,2.00
2017-09-04T17:01:27.342Z,2.00
2017-09-04T17:03:56.204Z,2.07
2017-09-04T17:06:25.076Z,1.90
2017-09-04T17:08:58.878Z,2.20
2017-09-04T17:11:28.255Z,2.40
2017-09-04T17:13:57.132Z,2.00
2017-09-04T17:16:26.657Z,2.47
2017-09-04T17:19:11.179Z,2.40
2017-09-04T17:21:41.541Z,2.23
2017-09-04T17:24:25.289Z,2.97
2017-09-04T17:26:54.143Z,2.63
2017-09-04T17:29:23.027Z,2.40
2017-09-04T17:31:51.893Z,2.87
2017-09-04T17:34:20.766Z,4.70
2017-09-04T17:36:49.615Z,3.23
2017-09-04T17:39:18.505Z,3.03
2017-09-04T17:41:47.367Z,3.20
2017-09-04T17:44:16.237Z,2.73
2017-09-04T17:46:45.100Z,3.13
2017-09-04T17:49:13.990Z,3.40
2017-09-04T17:51:42.853Z,3.97
2017-09-04T17:54:11.727Z,3.47
2017-09-04T17:56:40.589Z,3.43
2017-09-04T17:59:09.524Z,2.90
2017-09-04T18:01:38.387Z,3.47
2017-09-04T18:04:07.260Z,4.00
2017-09-04T18:06:36.126Z,4.70
2017-09-04T18:09:05.013Z,4.03
2017-09-04T18:11:33.875Z,3.50
2017-09-04T18:14:02.749Z,4.33
2017-09-04T18:16:31.619Z,3.20
2017-09-04T18:19:00.516Z,4.37
2017-09-04T18:21:29.384Z,3.70
2017-09-04T18:23:58.275Z,3.87
2017-09-04T18:26:27.131Z,3.33
2017-09-04T18:28:55.985Z,3.90
2017-09-04T18:31:24.861Z,4.67
2017-09-04T18:33:53.711Z,3.70
2017-09-04T18:36:22.588Z,5.70
2017-09-04T18:38:51.441Z,3.47
2017-09-04T18:41:20.320Z,4.00
2017-09-04T18:43:49.193Z,3.63
2017-09-04T18:46:18.072Z,5.47
2017-09-04T18:48:46.923Z,4.20
2017-09-04T18:51:15.787Z,4.10
2017-09-04T18:53:44.657Z,3.60
2017-09-04T18:56:13.549Z,4.80
2017-09-04T18:58:42.409Z,3.57
2017-09-04T19:01:11.294Z,3.60
2017-09-04T19:03:40.157Z,4.03
2017-09-04T19:06:09.085Z,4.00
2017-09-04T19:08:37.944Z,3.20
2017-09-04T19:11:06.821Z,4.70
2017-09-04T19:13:35.698Z,4.70
2017-09-04T19:16:04.567Z,4.50
2017-09-04T19:18:33.433Z,4.83
2017-09-04T19:21:02.312Z,5.37
2017-09-04T19:23:31.181Z,4.53
2017-09-04T19:26:00.070Z,5.20
2017-09-04T19:28:29.004Z,4.90
2017-09-04T19:30:57.892Z,4.83
2017-09-04T19:33:26.748Z,4.20
2017-09-04T19:35:55.628Z,4.73
2017-09-04T19:38:24.483Z,5.37
2017-09-04T19:40:53.355Z,5.13
2017-09-04T19:43:22.217Z,5.40
2017-09-04T19:45:51.101Z,4.20
2017-09-04T19:48:19.961Z,5.90
2017-09-04T19:50:48.829Z,4.80
2017-09-04T19:53:17.693Z,4.60
2017-09-04T19:55:46.574Z,5.20
2017-09-04T19:58:15.438Z,4.77
2017-09-04T20:00:44.332Z,5.17
2017-09-04T20:03:13.187Z,4.33
2017-09-04T20:05:42.074Z,5.10
2017-09-04T20:08:10.933Z,4.90
2017-09-04T20:10:39.803Z,5.13
2017-09-04T20:13:08.654Z,5.63
2017-09-04T20:15:37.523Z,5.87
2017-09-04T20:18:06.397Z,6.57
2017-09-04T20:20:35.282Z,6.40
2017-09-04T20:23:04.144Z,5.33
2017-09-04T20:25:33.029Z,5.20
2017-09-04T20:28:01.888Z,6.90
2017-09-04T20:30:30.759Z,6.17
2017-09-04T20:32:59.607Z,5.20
2017-09-04T20:35:28.500Z,5.20
2017-09-04T20:37:57.358Z,4.90
2017-09-04T20:40:26.254Z,5.47
2017-09-04T20:42:55.099Z,5.10
2017-09-04T20:45:23.947Z,5.30
2017-09-04T20:47:52.825Z,5.00
2017-09-04T20:50:21.696Z,4.87
2017-09-04T20:52:50.573Z,5.30
2017-09-04T20:55:19.452Z,4.40
2017-09-04T20:57:48.346Z,5.07
2017-09-04T21:00:17.222Z,5.17
2017-09-04T21:02:46.106Z,4.77
2017-09-04T21:05:14.968Z,5.50
2017-09-04T21:07:43.846Z,6.50
2017-09-04T21:10:12.694Z,6.20
2017-09-04T21:12:41.555Z,5.90
2017-09-04T21:15:10.427Z,6.13
2017-09-04T21:17:39.321Z,6.20
2017-09-04T21:20:08.201Z,5.80
2017-09-04T21:22:37.084Z,6.07
2017-09-04T21:25:05.944Z,8.07
2017-09-04T21:27:34.833Z,9.10
2017-09-04T21:30:03.689Z,7.10
2017-09-04T21:32:32.555Z,5.93
2017-09-04T21:35:01.413Z,7.97
2017-09-04T21:37:30.279Z,6.70
2017-09-04T21:39:59.150Z,7.27
2017-09-04T21:42:28.028Z,5.97
2017-09-04T21:44:56.907Z,5.80
2017-09-04T21:47:25.802Z,8.77
2017-09-04T21:49:54.668Z,8.17
2017-09-04T21:52:23.540Z,8.60
2017-09-04T21:54:52.388Z,8.20
2017-09-04T21:57:21.297Z,7.73
2017-09-04T21:59:50.152Z,6.00
2017-09-04T22:02:19.023Z,5.53
2017-09-04T22:04:47.880Z,5.70
2017-09-04T22:07:16.752Z,6.57
2017-09-04T22:09:45.608Z,6.80
2017-09-04T22:12:14.495Z,6.93
2017-09-04T22:14:43.361Z,10.40
2017-09-04T22:17:12.241Z,10.80
2017-09-04T22:19:41.116Z,11.70
2017-09-04T22:22:09.992Z,7.13
2017-09-04T22:24:38.867Z,7.00
2017-09-04T22:27:07.774Z,7.13
2017-09-04T22:29:36.649Z,9.67
2017-09-04T22:32:05.529Z,8.37
2017-09-04T22:34:34.389Z,7.60
2017-09-04T22:37:03.261Z,6.37
2017-09-04T22:39:32.131Z,5.87
2017-09-04T22:42:01.005Z,6.57
2017-09-04T22:44:29.891Z,5.97
2017-09-04T22:46:58.766Z,5.43
2017-09-04T22:49:27.640Z,5.70
2017-09-04T22:51:56.514Z,5.50
2017-09-04T22:54:25.398Z,5.27
2017-09-04T22:56:54.297Z,5.80
2017-09-04T22:59:23.143Z,5.57
2017-09-04T23:01:52.062Z,6.03
2017-09-04T23:04:20.938Z,5.53
2017-09-04T23:06:49.797Z,5.47
2017-09-04T23:09:18.682Z,5.63
2017-09-04T23:11:47.531Z,5.90
2017-09-04T23:14:16.400Z,5.70
2017-09-04T23:16:45.261Z,6.53
2017-09-04T23:19:14.166Z,5.20
2017-09-04T23:21:43.041Z,5.07
2017-09-04T23:24:11.981Z,4.57
2017-09-04T23:26:40.852Z,5.17
2017-09-04T23:29:09.793Z,5.27
2017-09-04T23:31:38.646Z,4.87
2017-09-04T23:34:07.517Z,5.27
2017-09-04T23:36:36.375Z,6.00
2017-09-04T23:39:05.248Z,5.23
2017-09-04T23:41:34.109Z,6.47
2017-09-04T23:44:02.998Z,4.20
2017-09-04T23:46:31.861Z,4.60
2017-09-04T23:49:00.762Z,4.20
2017-09-04T23:51:29.616Z,4.50
2017-09-04T23:53:58.503Z,4.80
2017-09-04T23:56:27.373Z,4.83
2017-09-04T23:58:56.252Z,4.10
